sensor_id;sensor_type;location;lat;lon;timestamp;temperature;humidity
66710;DHT22;53624;0.000;0.000;2023-05-20T00:00:54;16.90;99.90
66710;DHT22;53624;0.000;0.000;2023-05-20T00:03:21;16.90;99.90
66710;DHT22;53624;0.000;0.000;2023-05-20T00:05:50;16.80;99.90
66710;DHT22;53624;0.000;0.000;2023-05-20T00:08:17;16.80;99.90
66710;DHT22;53624;0.000;0.000;2023-05-20T00:10:45;16.80;99.90
66710;DHT22;53624;0.000;0.000;2023-05-20T00:13:12;16.80;99.90
66710;DHT22;53624;0.000;0.000;2023-05-20T00:15:40;16.80;99.90
66710;DHT22;53624;0.000;0.000;2023-05-20T00:18:07;16.80;99.90
66710;DHT22;53624;0.000;0.000;2023-05-20T00:20:35;16.80;99.90
66710;DHT22;53624;0.000;0.000;2023-05-20T00:23:03;16.80;99.90
66710;DHT22;53624;0.000;0.000;2023-05-20T00:25:31;16.80;99.90
66710;DHT22;53624;0.000;0.000;2023-05-20T00:27:58;16.80;99.90
66710;DHT22;53624;0.000;0.000;2023-05-20T00:30:26;16.70;99.90
66710;DHT22;53624;0.000;0.000;2023-05-20T00:32:53;16.70;99.90
66710;DHT22;53624;0.000;0.000;2023-05-20T00:35:21;16.80;99.90
66710;DHT22;53624;0.000;0.000;2023-05-20T00:37:48;16.70;99.90
66710;DHT22;53624;0.000;0.000;2023-05-20T00:40:17;16.70;99.90
66710;DHT22;53624;0.000;0.000;2023-05-20T00:42:45;16.70;99.90
66710;DHT22;53624;0.000;0.000;2023-05-20T00:45:13;16.70;99.90
66710;DHT22;53624;0.000;0.000;2023-05-20T00:47:40;16.70;99.90
66710;DHT22;53624;0.000;0.000;2023-05-20T00:50:08;16.70;99.90
66710;DHT22;53624;0.000;0.000;2023-05-20T00:52:36;16.70;99.90
66710;DHT22;53624;0.000;0.000;2023-05-20T00:55:04;16.60;99.90
66710;DHT22;53624;0.000;0.000;2023-05-20T00:57:33;16.70;99.90
66710;DHT22;53624;0.000;0.000;2023-05-20T01:00:01;16.70;99.90
66710;DHT22;53624;0.000;0.000;2023-05-20T01:02:28;16.60;99.90
66710;DHT22;53624;0.000;0.000;2023-05-20T01:04:56;16.60;99.90
66710;DHT22;53624;0.000;0.000;2023-05-20T01:07:24;16.60;99.90
66710;DHT22;53624;0.000;0.000;2023-05-20T01:09:51;16.60;99.90
66710;DHT22;53624;0.000;0.000;2023-05-20T01:12:21;16.60;99.90
66710;DHT22;53624;0.000;0.000;2023-05-20T01:14:53;16.60;99.90
66710;DHT22;53624;0.000;0.000;2023-05-20T01:17:21;16.60;99.90
66710;DHT22;53624;0.000;0.000;2023-05-20T01:19:52;16.60;99.90
66710;DHT22;53624;0.000;0.000;2023-05-20T01:22:24;16.60;99.90
66710;DHT22;53624;0.000;0.000;2023-05-20T01:24:51;16.60;99.90
66710;DHT22;53624;0.000;0.000;2023-05-20T01:27:20;16.60;99.90
66710;DHT22;53624;0.000;0.000;2023-05-20T01:29:48;16.60;99.90
66710;DHT22;53624;0.000;0.000;2023-05-20T01:32:17;16.60;99.90
66710;DHT22;53624;0.000;0.000;2023-05-20T01:34:46;16.50;99.90
66710;DHT22;53624;0.000;0.000;2023-05-20T01:37:14;16.50;99.90
66710;DHT22;53624;0.000;0.000;2023-05-20T01:39:45;16.50;99.90
66710;DHT22;53624;0.000;0.000;2023-05-20T01:42:13;16.50;99.90
66710;DHT22;53624;0.000;0.000;2023-05-20T01:44:41;16.50;99.90
66710;DHT22;53624;0.000;0.000;2023-05-20T01:47:09;16.50;99.90
66710;DHT22;53624;0.000;0.000;2023-05-20T01:49:36;16.50;99.90
66710;DHT22;53624;0.000;0.000;2023-05-20T01:52:04;16.50;99.90
66710;DHT22;53624;0.000;0.000;2023-05-20T01:54:33;16.50;99.90
66710;DHT22;53624;0.000;0.000;2023-05-20T01:57:02;16.50;99.90
66710;DHT22;53624;0.000;0.000;2023-05-20T01:59:29;16.50;99.90
66710;DHT22;53624;0.000;0.000;2023-05-20T02:01:56;16.50;99.90
66710;DHT22;53624;0.000;0.000;2023-05-20T02:04:24;16.50;99.90
66710;DHT22;53624;0.000;0.000;2023-05-20T02:06:51;16.40;99.90
66710;DHT22;53624;0.000;0.000;2023-05-20T02:09:22;16.40;99.90
66710;DHT22;53624;0.000;0.000;2023-05-20T02:11:51;16.40;99.90
66710;DHT22;53624;0.000;0.000;2023-05-20T02:14:20;16.40;99.90
66710;DHT22;53624;0.000;0.000;2023-05-20T02:16:47;16.40;99.90
66710;DHT22;53624;0.000;0.000;2023-05-20T02:19:15;16.40;99.90
66710;DHT22;53624;0.000;0.000;2023-05-20T02:21:48;16.40;99.90
66710;DHT22;53624;0.000;0.000;2023-05-20T02:24:16;16.40;99.90
66710;DHT22;53624;0.000;0.000;2023-05-20T02:26:45;16.40;99.90
66710;DHT22;53624;0.000;0.000;2023-05-20T02:29:14;16.40;99.90
66710;DHT22;53624;0.000;0.000;2023-05-20T02:31:43;16.40;99.90
66710;DHT22;53624;0.000;0.000;2023-05-20T02:34:11;16.40;99.90
66710;DHT22;53624;0.000;0.000;2023-05-20T02:36:38;16.40;99.90
66710;DHT22;53624;0.000;0.000;2023-05-20T02:39:06;16.40;99.90
66710;DHT22;53624;0.000;0.000;2023-05-20T02:41:33;16.40;99.90
66710;DHT22;53624;0.000;0.000;2023-05-20T02:44:02;16.40;99.90
66710;DHT22;53624;0.000;0.000;2023-05-20T02:46:30;16.40;99.90
66710;DHT22;53624;0.000;0.000;2023-05-20T02:49:00;16.30;99.90
66710;DHT22;53624;0.000;0.000;2023-05-20T02:51:27;16.30;99.90
66710;DHT22;53624;0.000;0.000;2023-05-20T02:53:56;16.30;99.90
66710;DHT22;53624;0.000;0.000;2023-05-20T02:56:24;16.30;99.90
66710;DHT22;53624;0.000;0.000;2023-05-20T02:58:52;16.30;99.90
66710;DHT22;53624;0.000;0.000;2023-05-20T03:01:19;16.30;99.90
66710;DHT22;53624;0.000;0.000;2023-05-20T03:03:47;16.30;99.90
66710;DHT22;53624;0.000;0.000;2023-05-20T03:06:16;16.30;99.90
66710;DHT22;53624;0.000;0.000;2023-05-20T03:08:43;16.30;99.90
66710;DHT22;53624;0.000;0.000;2023-05-20T03:11:10;16.30;99.90
66710;DHT22;53624;0.000;0.000;2023-05-20T03:13:38;16.30;99.90
66710;DHT22;53624;0.000;0.000;2023-05-20T03:16:06;16.30;99.90
66710;DHT22;53624;0.000;0.000;2023-05-20T03:18:33;16.20;99.90
66710;DHT22;53624;0.000;0.000;2023-05-20T03:21:01;16.30;99.90
66710;DHT22;53624;0.000;0.000;2023-05-20T03:23:30;16.20;99.90
66710;DHT22;53624;0.000;0.000;2023-05-20T03:25:58;16.20;99.90
66710;DHT22;53624;0.000;0.000;2023-05-20T03:28:25;16.20;99.90
66710;DHT22;53624;0.000;0.000;2023-05-20T03:30:53;16.20;99.90
66710;DHT22;53624;0.000;0.000;2023-05-20T03:33:21;16.20;99.90
66710;DHT22;53624;0.000;0.000;2023-05-20T03:35:51;16.20;99.90
66710;DHT22;53624;0.000;0.000;2023-05-20T03:38:18;16.20;99.90
66710;DHT22;53624;0.000;0.000;2023-05-20T03:40:47;16.20;99.90
66710;DHT22;53624;0.000;0.000;2023-05-20T03:43:15;16.20;99.90
66710;DHT22;53624;0.000;0.000;2023-05-20T03:45:43;16.20;99.90
66710;DHT22;53624;0.000;0.000;2023-05-20T03:48:12;16.20;99.90
66710;DHT22;53624;0.000;0.000;2023-05-20T03:50:41;16.20;99.90
66710;DHT22;53624;0.000;0.000;2023-05-20T03:53:08;16.10;99.90
66710;DHT22;53624;0.000;0.000;2023-05-20T03:55:39;16.10;99.90
66710;DHT22;53624;0.000;0.000;2023-05-20T03:58:10;16.10;99.90
66710;DHT22;53624;0.000;0.000;2023-05-20T04:00:39;16.10;99.90
66710;DHT22;53624;0.000;0.000;2023-05-20T04:03:06;16.10;99.90
66710;DHT22;53624;0.000;0.000;2023-05-20T04:05:35;16.10;99.90
66710;DHT22;53624;0.000;0.000;2023-05-20T04:08:05;16.10;99.90
66710;DHT22;53624;0.000;0.000;2023-05-20T04:10:32;16.10;99.90
66710;DHT22;53624;0.000;0.000;2023-05-20T04:13:00;16.10;99.90
66710;DHT22;53624;0.000;0.000;2023-05-20T04:15:29;16.10;99.90
66710;DHT22;53624;0.000;0.000;2023-05-20T04:17:58;16.10;99.90
66710;DHT22;53624;0.000;0.000;2023-05-20T04:20:26;16.10;99.90
66710;DHT22;53624;0.000;0.000;2023-05-20T04:22:56;16.10;99.90
66710;DHT22;53624;0.000;0.000;2023-05-20T04:25:24;16.10;99.90
66710;DHT22;53624;0.000;0.000;2023-05-20T04:27:52;16.10;99.90
66710;DHT22;53624;0.000;0.000;2023-05-20T04:30:20;16.10;99.90
66710;DHT22;53624;0.000;0.000;2023-05-20T04:32:50;16.10;99.90
66710;DHT22;53624;0.000;0.000;2023-05-20T04:35:18;16.10;99.90
66710;DHT22;53624;0.000;0.000;2023-05-20T04:37:48;16.10;99.90
66710;DHT22;53624;0.000;0.000;2023-05-20T04:40:18;16.10;99.90
66710;DHT22;53624;0.000;0.000;2023-05-20T04:42:46;16.10;99.90
66710;DHT22;53624;0.000;0.000;2023-05-20T04:45:14;16.10;99.90
66710;DHT22;53624;0.000;0.000;2023-05-20T04:47:42;16.10;99.90
66710;DHT22;53624;0.000;0.000;2023-05-20T04:50:12;16.10;99.90
66710;DHT22;53624;0.000;0.000;2023-05-20T04:52:40;16.10;99.90
66710;DHT22;53624;0.000;0.000;2023-05-20T04:55:08;16.10;99.90
66710;DHT22;53624;0.000;0.000;2023-05-20T04:57:36;16.10;99.90
66710;DHT22;53624;0.000;0.000;2023-05-20T05:00:07;16.10;99.90
66710;DHT22;53624;0.000;0.000;2023-05-20T05:02:35;16.10;99.90
66710;DHT22;53624;0.000;0.000;2023-05-20T05:05:03;16.10;99.90
66710;DHT22;53624;0.000;0.000;2023-05-20T05:07:32;16.10;99.90
66710;DHT22;53624;0.000;0.000;2023-05-20T05:09:59;16.10;99.90
66710;DHT22;53624;0.000;0.000;2023-05-20T05:12:29;16.10;99.90
66710;DHT22;53624;0.000;0.000;2023-05-20T05:14:57;16.10;99.90
66710;DHT22;53624;0.000;0.000;2023-05-20T05:17:26;16.10;99.90
66710;DHT22;53624;0.000;0.000;2023-05-20T05:19:53;16.10;99.90
66710;DHT22;53624;0.000;0.000;2023-05-20T05:22:21;16.10;99.90
66710;DHT22;53624;0.000;0.000;2023-05-20T05:24:50;16.10;99.90
66710;DHT22;53624;0.000;0.000;2023-05-20T05:27:18;16.10;99.90
66710;DHT22;53624;0.000;0.000;2023-05-20T05:29:45;16.10;99.90
66710;DHT22;53624;0.000;0.000;2023-05-20T05:32:12;16.10;99.90
66710;DHT22;53624;0.000;0.000;2023-05-20T05:34:40;16.20;99.90
66710;DHT22;53624;0.000;0.000;2023-05-20T05:37:07;16.20;99.90
66710;DHT22;53624;0.000;0.000;2023-05-20T05:39:35;16.20;99.90
66710;DHT22;53624;0.000;0.000;2023-05-20T05:42:05;16.20;99.90
66710;DHT22;53624;0.000;0.000;2023-05-20T05:44:33;16.20;99.90
66710;DHT22;53624;0.000;0.000;2023-05-20T05:47:02;16.20;99.90
66710;DHT22;53624;0.000;0.000;2023-05-20T05:49:31;16.30;99.90
66710;DHT22;53624;0.000;0.000;2023-05-20T05:51:58;16.30;99.90
66710;DHT22;53624;0.000;0.000;2023-05-20T05:54:26;16.30;99.90
66710;DHT22;53624;0.000;0.000;2023-05-20T05:56:54;16.40;99.90
66710;DHT22;53624;0.000;0.000;2023-05-20T05:59:23;16.40;99.90
66710;DHT22;53624;0.000;0.000;2023-05-20T06:01:52;16.50;99.90
66710;DHT22;53624;0.000;0.000;2023-05-20T06:04:19;16.70;99.90
66710;DHT22;53624;0.000;0.000;2023-05-20T06:06:47;16.80;99.90
66710;DHT22;53624;0.000;0.000;2023-05-20T06:09:15;16.80;99.90
66710;DHT22;53624;0.000;0.000;2023-05-20T06:11:43;16.80;99.90
66710;DHT22;53624;0.000;0.000;2023-05-20T06:14:11;16.90;99.90
66710;DHT22;53624;0.000;0.000;2023-05-20T06:16:40;16.90;99.90
66710;DHT22;53624;0.000;0.000;2023-05-20T06:19:07;16.90;99.90
66710;DHT22;53624;0.000;0.000;2023-05-20T06:21:35;16.90;99.90
66710;DHT22;53624;0.000;0.000;2023-05-20T06:24:04;16.90;99.90
66710;DHT22;53624;0.000;0.000;2023-05-20T06:26:34;17.00;99.90
66710;DHT22;53624;0.000;0.000;2023-05-20T06:29:02;17.10;99.90
66710;DHT22;53624;0.000;0.000;2023-05-20T06:31:29;17.10;99.90
66710;DHT22;53624;0.000;0.000;2023-05-20T06:33:58;17.10;99.90
66710;DHT22;53624;0.000;0.000;2023-05-20T06:36:26;17.10;99.90
66710;DHT22;53624;0.000;0.000;2023-05-20T06:38:54;17.20;99.90
66710;DHT22;53624;0.000;0.000;2023-05-20T06:41:21;17.30;99.90
66710;DHT22;53624;0.000;0.000;2023-05-20T06:43:50;17.40;99.90
66710;DHT22;53624;0.000;0.000;2023-05-20T06:46:49;17.50;99.90
66710;DHT22;53624;0.000;0.000;2023-05-20T06:49:18;17.50;99.90
66710;DHT22;53624;0.000;0.000;2023-05-20T06:51:45;17.50;99.90
66710;DHT22;53624;0.000;0.000;2023-05-20T06:54:13;17.60;99.90
66710;DHT22;53624;0.000;0.000;2023-05-20T06:56:41;17.60;99.90
66710;DHT22;53624;0.000;0.000;2023-05-20T06:59:09;17.60;99.90
66710;DHT22;53624;0.000;0.000;2023-05-20T07:01:37;17.70;99.90
66710;DHT22;53624;0.000;0.000;2023-05-20T07:04:05;17.70;99.90
66710;DHT22;53624;0.000;0.000;2023-05-20T07:06:34;17.70;99.90
66710;DHT22;53624;0.000;0.000;2023-05-20T07:09:02;17.80;99.90
66710;DHT22;53624;0.000;0.000;2023-05-20T07:11:32;17.80;99.90
66710;DHT22;53624;0.000;0.000;2023-05-20T07:13:59;17.80;99.90
66710;DHT22;53624;0.000;0.000;2023-05-20T07:16:30;17.80;99.90
66710;DHT22;53624;0.000;0.000;2023-05-20T07:19:00;17.90;99.90
66710;DHT22;53624;0.000;0.000;2023-05-20T07:21:27;17.90;99.90
66710;DHT22;53624;0.000;0.000;2023-05-20T07:24:17;17.90;99.90
66710;DHT22;53624;0.000;0.000;2023-05-20T07:26:44;17.90;99.90
66710;DHT22;53624;0.000;0.000;2023-05-20T07:29:12;17.90;99.90
66710;DHT22;53624;0.000;0.000;2023-05-20T07:31:39;17.90;99.90
66710;DHT22;53624;0.000;0.000;2023-05-20T07:34:07;17.90;99.90
66710;DHT22;53624;0.000;0.000;2023-05-20T07:36:34;18.00;99.90
66710;DHT22;53624;0.000;0.000;2023-05-20T07:39:05;18.00;99.90
66710;DHT22;53624;0.000;0.000;2023-05-20T07:41:36;18.00;99.90
66710;DHT22;53624;0.000;0.000;2023-05-20T07:44:05;18.10;99.90
66710;DHT22;53624;0.000;0.000;2023-05-20T07:46:35;18.20;99.90
66710;DHT22;53624;0.000;0.000;2023-05-20T07:49:04;18.20;99.90
66710;DHT22;53624;0.000;0.000;2023-05-20T07:51:33;18.20;99.90
66710;DHT22;53624;0.000;0.000;2023-05-20T07:54:01;18.30;99.90
66710;DHT22;53624;0.000;0.000;2023-05-20T07:56:28;18.30;99.90
66710;DHT22;53624;0.000;0.000;2023-05-20T07:58:58;18.30;99.90
66710;DHT22;53624;0.000;0.000;2023-05-20T08:01:29;18.40;99.90
66710;DHT22;53624;0.000;0.000;2023-05-20T08:03:57;18.40;99.90
66710;DHT22;53624;0.000;0.000;2023-05-20T08:06:25;18.40;99.90
66710;DHT22;53624;0.000;0.000;2023-05-20T08:08:53;18.50;99.90
66710;DHT22;53624;0.000;0.000;2023-05-20T08:11:27;18.50;99.90
66710;DHT22;53624;0.000;0.000;2023-05-20T08:13:55;18.60;99.90
66710;DHT22;53624;0.000;0.000;2023-05-20T08:16:27;18.80;99.90
66710;DHT22;53624;0.000;0.000;2023-05-20T08:18:58;18.90;99.60
66710;DHT22;53624;0.000;0.000;2023-05-20T08:21:26;19.00;99.40
66710;DHT22;53624;0.000;0.000;2023-05-20T08:23:53;19.20;99.10
66710;DHT22;53624;0.000;0.000;2023-05-20T08:26:21;19.30;98.90
66710;DHT22;53624;0.000;0.000;2023-05-20T08:28:49;19.30;98.80
66710;DHT22;53624;0.000;0.000;2023-05-20T08:31:18;19.60;98.30
66710;DHT22;53624;0.000;0.000;2023-05-20T08:33:47;19.90;97.90
66710;DHT22;53624;0.000;0.000;2023-05-20T08:36:14;20.00;97.60
66710;DHT22;53624;0.000;0.000;2023-05-20T08:38:43;20.00;97.70
66710;DHT22;53624;0.000;0.000;2023-05-20T08:41:11;19.80;97.80
66710;DHT22;53624;0.000;0.000;2023-05-20T08:43:42;19.70;98.00
66710;DHT22;53624;0.000;0.000;2023-05-20T08:46:10;19.60;98.30
66710;DHT22;53624;0.000;0.000;2023-05-20T08:48:38;19.60;98.40
66710;DHT22;53624;0.000;0.000;2023-05-20T08:51:08;19.50;98.60
66710;DHT22;53624;0.000;0.000;2023-05-20T08:53:35;19.40;98.70
66710;DHT22;53624;0.000;0.000;2023-05-20T08:56:03;19.40;98.80
66710;DHT22;53624;0.000;0.000;2023-05-20T08:58:31;19.40;98.90
66710;DHT22;53624;0.000;0.000;2023-05-20T09:00:58;19.40;99.00
66710;DHT22;53624;0.000;0.000;2023-05-20T09:03:26;19.40;99.40
66710;DHT22;53624;0.000;0.000;2023-05-20T09:06:01;19.40;99.10
66710;DHT22;53624;0.000;0.000;2023-05-20T09:08:31;19.40;99.10
66710;DHT22;53624;0.000;0.000;2023-05-20T09:10:59;19.40;99.00
66710;DHT22;53624;0.000;0.000;2023-05-20T09:13:29;19.40;99.00
66710;DHT22;53624;0.000;0.000;2023-05-20T09:15:58;19.50;99.00
66710;DHT22;53624;0.000;0.000;2023-05-20T09:18:25;19.50;98.90
66710;DHT22;53624;0.000;0.000;2023-05-20T09:20:54;19.60;98.80
66710;DHT22;53624;0.000;0.000;2023-05-20T09:23:21;19.70;98.70
66710;DHT22;53624;0.000;0.000;2023-05-20T09:25:51;19.70;98.60
66710;DHT22;53624;0.000;0.000;2023-05-20T09:28:21;19.80;98.50
66710;DHT22;53624;0.000;0.000;2023-05-20T09:30:49;19.90;98.40
66710;DHT22;53624;0.000;0.000;2023-05-20T09:33:16;20.10;98.10
66710;DHT22;53624;0.000;0.000;2023-05-20T09:35:44;20.30;97.90
66710;DHT22;53624;0.000;0.000;2023-05-20T09:38:11;20.40;97.60
66710;DHT22;53624;0.000;0.000;2023-05-20T09:40:40;20.40;97.70
66710;DHT22;53624;0.000;0.000;2023-05-20T09:43:10;20.30;97.70
66710;DHT22;53624;0.000;0.000;2023-05-20T09:45:38;20.30;97.80
66710;DHT22;53624;0.000;0.000;2023-05-20T09:48:05;20.30;97.90
66710;DHT22;53624;0.000;0.000;2023-05-20T09:50:35;20.20;97.80
66710;DHT22;53624;0.000;0.000;2023-05-20T09:53:03;20.30;97.90
66710;DHT22;53624;0.000;0.000;2023-05-20T09:55:31;20.30;97.80
66710;DHT22;53624;0.000;0.000;2023-05-20T09:58:00;20.40;97.80
66710;DHT22;53624;0.000;0.000;2023-05-20T10:00:29;20.40;97.70
66710;DHT22;53624;0.000;0.000;2023-05-20T10:02:57;20.40;97.60
66710;DHT22;53624;0.000;0.000;2023-05-20T10:05:26;20.50;97.60
66710;DHT22;53624;0.000;0.000;2023-05-20T10:10:44;20.60;97.40
66710;DHT22;53624;0.000;0.000;2023-05-20T10:13:16;20.70;97.30
66710;DHT22;53624;0.000;0.000;2023-05-20T10:15:48;20.80;97.20
66710;DHT22;53624;0.000;0.000;2023-05-20T10:18:20;21.00;97.00
66710;DHT22;53624;0.000;0.000;2023-05-20T10:20:51;21.20;96.70
66710;DHT22;53624;0.000;0.000;2023-05-20T10:23:22;21.50;96.30
66710;DHT22;53624;0.000;0.000;2023-05-20T10:25:50;21.70;96.00
66710;DHT22;53624;0.000;0.000;2023-05-20T10:28:26;21.70;95.80
66710;DHT22;53624;0.000;0.000;2023-05-20T10:30:55;21.60;96.00
66710;DHT22;53624;0.000;0.000;2023-05-20T10:33:24;21.50;96.10
66710;DHT22;53624;0.000;0.000;2023-05-20T10:35:52;21.40;96.20
66710;DHT22;53624;0.000;0.000;2023-05-20T10:38:20;21.20;96.40
66710;DHT22;53624;0.000;0.000;2023-05-20T10:40:48;21.10;96.40
66710;DHT22;53624;0.000;0.000;2023-05-20T10:43:16;21.10;96.50
66710;DHT22;53624;0.000;0.000;2023-05-20T10:45:47;21.10;96.70
66710;DHT22;53624;0.000;0.000;2023-05-20T10:48:33;21.10;96.70
66710;DHT22;53624;0.000;0.000;2023-05-20T10:51:02;21.20;96.60
66710;DHT22;53624;0.000;0.000;2023-05-20T10:53:37;21.30;96.70
66710;DHT22;53624;0.000;0.000;2023-05-20T10:56:05;21.40;96.80
66710;DHT22;53624;0.000;0.000;2023-05-20T10:58:35;21.50;99.90
66710;DHT22;53624;0.000;0.000;2023-05-20T11:01:03;21.50;99.90
66710;DHT22;53624;0.000;0.000;2023-05-20T11:03:32;21.60;99.90
66710;DHT22;53624;0.000;0.000;2023-05-20T11:06:00;21.60;99.90
66710;DHT22;53624;0.000;0.000;2023-05-20T11:08:28;21.70;99.90
66710;DHT22;53624;0.000;0.000;2023-05-20T11:10:56;21.70;98.60
66710;DHT22;53624;0.000;0.000;2023-05-20T11:13:24;21.70;98.70
66710;DHT22;53624;0.000;0.000;2023-05-20T11:15:52;21.60;97.70
66710;DHT22;53624;0.000;0.000;2023-05-20T11:18:20;21.60;97.80
66710;DHT22;53624;0.000;0.000;2023-05-20T11:20:49;21.60;97.10
66710;DHT22;53624;0.000;0.000;2023-05-20T11:23:17;21.60;97.20
66710;DHT22;53624;0.000;0.000;2023-05-20T11:25:45;21.60;96.80
66710;DHT22;53624;0.000;0.000;2023-05-20T11:28:12;21.60;97.00
66710;DHT22;53624;0.000;0.000;2023-05-20T11:30:41;21.60;96.60
66710;DHT22;53624;0.000;0.000;2023-05-20T11:33:10;21.70;96.10
66710;DHT22;53624;0.000;0.000;2023-05-20T11:35:43;21.70;96.00
66710;DHT22;53624;0.000;0.000;2023-05-20T11:38:12;21.70;96.50
66710;DHT22;53624;0.000;0.000;2023-05-20T11:40:42;21.70;96.30
66710;DHT22;53624;0.000;0.000;2023-05-20T11:43:09;21.80;96.40
66710;DHT22;53624;0.000;0.000;2023-05-20T11:45:38;21.80;96.60
66710;DHT22;53624;0.000;0.000;2023-05-20T11:48:05;21.80;96.00
66710;DHT22;53624;0.000;0.000;2023-05-20T11:50:33;21.80;95.60
66710;DHT22;53624;0.000;0.000;2023-05-20T11:53:01;21.70;95.00
66710;DHT22;53624;0.000;0.000;2023-05-20T11:55:31;21.60;95.20
66710;DHT22;53624;0.000;0.000;2023-05-20T11:57:59;21.60;95.50
66710;DHT22;53624;0.000;0.000;2023-05-20T12:00:27;21.50;95.60
66710;DHT22;53624;0.000;0.000;2023-05-20T12:02:55;21.40;95.10
66710;DHT22;53624;0.000;0.000;2023-05-20T12:05:22;21.40;95.50
66710;DHT22;53624;0.000;0.000;2023-05-20T12:07:50;21.30;95.30
66710;DHT22;53624;0.000;0.000;2023-05-20T12:10:17;21.30;95.70
66710;DHT22;53624;0.000;0.000;2023-05-20T12:12:46;21.20;96.00
66710;DHT22;53624;0.000;0.000;2023-05-20T12:15:14;21.20;96.00
66710;DHT22;53624;0.000;0.000;2023-05-20T12:17:45;21.20;96.10
66710;DHT22;53624;0.000;0.000;2023-05-20T12:20:13;21.20;96.10
66710;DHT22;53624;0.000;0.000;2023-05-20T12:22:41;21.10;96.00
66710;DHT22;53624;0.000;0.000;2023-05-20T12:25:10;21.10;96.10
66710;DHT22;53624;0.000;0.000;2023-05-20T12:27:38;21.10;96.20
66710;DHT22;53624;0.000;0.000;2023-05-20T12:30:08;21.00;96.30
66710;DHT22;53624;0.000;0.000;2023-05-20T12:32:36;21.00;96.20
66710;DHT22;53624;0.000;0.000;2023-05-20T12:35:04;21.00;96.50
66710;DHT22;53624;0.000;0.000;2023-05-20T12:37:32;21.00;96.20
66710;DHT22;53624;0.000;0.000;2023-05-20T12:40:00;21.00;96.10
66710;DHT22;53624;0.000;0.000;2023-05-20T12:42:29;20.90;95.90
66710;DHT22;53624;0.000;0.000;2023-05-20T12:44:56;21.00;96.00
66710;DHT22;53624;0.000;0.000;2023-05-20T12:47:25;20.90;95.80
66710;DHT22;53624;0.000;0.000;2023-05-20T12:49:53;20.90;96.10
66710;DHT22;53624;0.000;0.000;2023-05-20T12:52:20;20.90;96.40
66710;DHT22;53624;0.000;0.000;2023-05-20T12:54:48;20.80;96.30
66710;DHT22;53624;0.000;0.000;2023-05-20T12:57:16;20.80;96.20
66710;DHT22;53624;0.000;0.000;2023-05-20T12:59:44;20.80;96.40
66710;DHT22;53624;0.000;0.000;2023-05-20T13:02:12;20.80;96.50
66710;DHT22;53624;0.000;0.000;2023-05-20T13:04:41;20.70;96.60
66710;DHT22;53624;0.000;0.000;2023-05-20T13:07:08;20.70;96.30
66710;DHT22;53624;0.000;0.000;2023-05-20T13:09:36;20.70;96.30
66710;DHT22;53624;0.000;0.000;2023-05-20T13:12:04;20.70;96.50
66710;DHT22;53624;0.000;0.000;2023-05-20T13:14:31;20.70;96.60
66710;DHT22;53624;0.000;0.000;2023-05-20T13:16:59;20.70;96.60
66710;DHT22;53624;0.000;0.000;2023-05-20T13:19:26;20.70;96.70
66710;DHT22;53624;0.000;0.000;2023-05-20T13:21:55;20.70;96.70
66710;DHT22;53624;0.000;0.000;2023-05-20T13:24:23;20.70;97.00
66710;DHT22;53624;0.000;0.000;2023-05-20T13:26:50;20.70;96.80
66710;DHT22;53624;0.000;0.000;2023-05-20T13:29:18;20.70;96.70
66710;DHT22;53624;0.000;0.000;2023-05-20T13:31:45;20.70;96.70
66710;DHT22;53624;0.000;0.000;2023-05-20T13:34:13;20.70;96.70
66710;DHT22;53624;0.000;0.000;2023-05-20T13:36:40;20.70;96.70
66710;DHT22;53624;0.000;0.000;2023-05-20T13:39:09;20.70;96.60
66710;DHT22;53624;0.000;0.000;2023-05-20T13:41:37;20.70;96.60
66710;DHT22;53624;0.000;0.000;2023-05-20T13:44:04;20.70;96.70
66710;DHT22;53624;0.000;0.000;2023-05-20T13:46:32;20.60;96.80
66710;DHT22;53624;0.000;0.000;2023-05-20T13:49:00;20.60;96.90
66710;DHT22;53624;0.000;0.000;2023-05-20T13:51:29;20.50;97.00
66710;DHT22;53624;0.000;0.000;2023-05-20T13:53:56;20.50;97.00
66710;DHT22;53624;0.000;0.000;2023-05-20T13:56:25;20.50;97.00
66710;DHT22;53624;0.000;0.000;2023-05-20T13:58:53;20.40;97.00
66710;DHT22;53624;0.000;0.000;2023-05-20T14:01:20;20.40;97.10
66710;DHT22;53624;0.000;0.000;2023-05-20T14:03:49;20.30;97.20
66710;DHT22;53624;0.000;0.000;2023-05-20T14:06:17;20.30;97.20
66710;DHT22;53624;0.000;0.000;2023-05-20T14:08:44;20.30;97.30
66710;DHT22;53624;0.000;0.000;2023-05-20T14:11:12;20.20;97.30
66710;DHT22;53624;0.000;0.000;2023-05-20T14:13:41;20.20;97.30
66710;DHT22;53624;0.000;0.000;2023-05-20T14:16:09;20.20;97.40
66710;DHT22;53624;0.000;0.000;2023-05-20T14:18:37;20.20;97.40
66710;DHT22;53624;0.000;0.000;2023-05-20T14:21:04;20.10;97.40
66710;DHT22;53624;0.000;0.000;2023-05-20T14:23:32;20.10;97.50
66710;DHT22;53624;0.000;0.000;2023-05-20T14:25:59;20.10;97.50
66710;DHT22;53624;0.000;0.000;2023-05-20T14:28:27;20.10;97.60
66710;DHT22;53624;0.000;0.000;2023-05-20T14:30:56;20.00;97.60
66710;DHT22;53624;0.000;0.000;2023-05-20T14:33:23;20.00;97.50
66710;DHT22;53624;0.000;0.000;2023-05-20T14:35:50;20.00;97.90
66710;DHT22;53624;0.000;0.000;2023-05-20T14:38:18;19.90;97.60
66710;DHT22;53624;0.000;0.000;2023-05-20T14:40:46;19.90;97.90
66710;DHT22;53624;0.000;0.000;2023-05-20T14:43:14;19.90;97.90
66710;DHT22;53624;0.000;0.000;2023-05-20T14:45:41;19.80;97.90
66710;DHT22;53624;0.000;0.000;2023-05-20T14:48:10;19.80;98.00
66710;DHT22;53624;0.000;0.000;2023-05-20T14:50:37;19.80;98.20
66710;DHT22;53624;0.000;0.000;2023-05-20T14:53:05;19.70;98.20
66710;DHT22;53624;0.000;0.000;2023-05-20T14:55:33;19.70;98.30
66710;DHT22;53624;0.000;0.000;2023-05-20T14:58:00;19.70;98.40
66710;DHT22;53624;0.000;0.000;2023-05-20T15:00:28;19.70;98.40
66710;DHT22;53624;0.000;0.000;2023-05-20T15:02:55;19.60;98.40
66710;DHT22;53624;0.000;0.000;2023-05-20T15:05:24;19.60;98.60
66710;DHT22;53624;0.000;0.000;2023-05-20T15:07:51;19.60;98.60
66710;DHT22;53624;0.000;0.000;2023-05-20T15:10:19;19.60;98.60
66710;DHT22;53624;0.000;0.000;2023-05-20T15:12:46;19.50;98.80
66710;DHT22;53624;0.000;0.000;2023-05-20T15:15:14;19.50;99.20
66710;DHT22;53624;0.000;0.000;2023-05-20T15:17:41;19.50;98.90
66710;DHT22;53624;0.000;0.000;2023-05-20T15:20:09;19.40;99.00
66710;DHT22;53624;0.000;0.000;2023-05-20T15:22:38;19.40;99.10
66710;DHT22;53624;0.000;0.000;2023-05-20T15:25:08;19.40;99.10
66710;DHT22;53624;0.000;0.000;2023-05-20T15:27:36;19.40;99.30
66710;DHT22;53624;0.000;0.000;2023-05-20T15:30:04;19.40;99.40
66710;DHT22;53624;0.000;0.000;2023-05-20T15:32:31;19.40;99.40
66710;DHT22;53624;0.000;0.000;2023-05-20T15:34:59;19.40;99.50
66710;DHT22;53624;0.000;0.000;2023-05-20T15:37:26;19.30;99.60
66710;DHT22;53624;0.000;0.000;2023-05-20T15:39:55;19.30;99.90
66710;DHT22;53624;0.000;0.000;2023-05-20T15:42:23;19.30;99.80
66710;DHT22;53624;0.000;0.000;2023-05-20T15:44:50;19.30;99.80
66710;DHT22;53624;0.000;0.000;2023-05-20T15:47:18;19.30;99.90
66710;DHT22;53624;0.000;0.000;2023-05-20T15:51:54;19.20;99.70
66710;DHT22;53624;0.000;0.000;2023-05-20T15:54:22;19.30;99.90
66710;DHT22;53624;0.000;0.000;2023-05-20T15:56:50;19.50;99.70